createdAt,value
2023-01-30T00:01:19.393Z,99697.63
2023-01-30T00:03:45.909Z,99670.56
2023-01-30T00:06:12.881Z,99680.19
2023-01-30T00:08:39.459Z,99693.09
2023-01-30T00:11:11.638Z,99714.88
2023-01-30T00:13:39.024Z,99688.94
2023-01-30T00:16:05.845Z,99675.63
2023-01-30T00:18:32.429Z,99690.47
2023-01-30T00:21:01.012Z,99671.81
2023-01-30T00:23:28.437Z,99678.81
2023-01-30T00:25:55.444Z,99669.63
2023-01-30T00:28:22.166Z,99667.91
2023-01-30T00:30:50.532Z,99669.31
2023-01-30T00:33:18.226Z,99654.19
2023-01-30T00:35:46.069Z,99638.50
2023-01-30T00:38:14.005Z,99643.31
2023-01-30T00:40:41.776Z,99651.19
2023-01-30T00:43:31.005Z,99640.50
2023-01-30T00:46:16.793Z,99658.63
2023-01-30T00:48:43.226Z,99636.59
2023-01-30T00:51:09.637Z,99625.09
2023-01-30T00:53:36.309Z,99624.06
2023-01-30T00:56:03.216Z,99617.94
2023-01-30T00:58:29.710Z,99632.97
2023-01-30T01:00:56.400Z,99627.56
2023-01-30T01:03:22.959Z,99613.56
2023-01-30T01:05:49.496Z,99603.50
2023-01-30T01:08:16.221Z,99592.84
2023-01-30T01:10:42.595Z,99584.81
2023-01-30T01:13:10.511Z,99588.38
2023-01-30T01:15:37.231Z,99590.97
2023-01-30T01:18:03.924Z,99600.53
2023-01-30T01:20:30.428Z,99600.53
2023-01-30T01:22:57.614Z,99587.22
2023-01-30T01:25:25.154Z,99581.13
2023-01-30T01:27:52.248Z,99580.06
2023-01-30T01:30:19.304Z,99576.38
2023-01-30T01:32:45.747Z,99577.31
2023-01-30T01:35:12.440Z,99579.09
2023-01-30T01:37:38.813Z,99586.88
2023-01-30T01:40:25.554Z,99569.91
2023-01-30T01:42:52.129Z,99578.16
2023-01-30T01:45:24.910Z,99555.97
2023-01-30T01:48:06.934Z,99560.25
2023-01-30T01:50:51.403Z,99556.47
2023-01-30T01:53:21.941Z,99565.38
2023-01-30T01:55:52.269Z,99563.66
2023-01-30T01:58:51.118Z,99549.31
2023-01-30T02:01:18.222Z,99548.28
2023-01-30T02:03:49.272Z,99540.44
2023-01-30T02:06:17.333Z,99555.56
2023-01-30T02:08:57.670Z,99549.31
2023-01-30T02:11:33.415Z,99554.50
2023-01-30T02:14:02.209Z,99557.06
2023-01-30T02:16:28.774Z,99559.56
2023-01-30T02:18:55.515Z,99550.78
2023-01-30T02:21:25.107Z,99543.69
2023-01-30T02:24:09.896Z,99540.09
2023-01-30T02:26:56.045Z,99542.81
2023-01-30T02:29:25.578Z,99539.50
2023-01-30T02:32:25.304Z,99530.34
2023-01-30T02:34:59.929Z,99527.94
2023-01-30T02:38:10.975Z,99509.63
2023-01-30T02:40:50.309Z,99515.50
2023-01-30T02:43:28.549Z,99511.22
2023-01-30T02:46:19.673Z,99499.41
2023-01-30T02:48:48.256Z,99501.47
2023-01-30T02:51:21.450Z,99490.31
2023-01-30T02:53:49.376Z,99488.50
2023-01-30T02:56:15.983Z,99484.72
2023-01-30T02:58:50.013Z,99466.28
2023-01-30T03:01:50.861Z,99461.84
2023-01-30T03:04:31.979Z,99478.50
2023-01-30T03:07:07.529Z,99483.72
2023-01-30T03:09:34.264Z,99490.59
2023-01-30T03:12:07.315Z,99489.00
2023-01-30T03:15:05.700Z,99497.72
2023-01-30T03:17:33.039Z,99496.00
2023-01-30T03:20:00.053Z,99481.91
2023-01-30T03:22:26.776Z,99482.75
2023-01-30T03:24:54.473Z,99483.72
2023-01-30T03:27:22.708Z,99472.75
2023-01-30T03:29:49.180Z,99471.56
2023-01-30T03:32:15.678Z,99464.72
2023-01-30T03:34:42.251Z,99467.44
2023-01-30T03:37:08.977Z,99472.66
2023-01-30T03:39:35.618Z,99448.66
2023-01-30T03:42:02.130Z,99459.41
2023-01-30T03:44:28.624Z,99446.16
2023-01-30T03:46:54.952Z,99447.97
2023-01-30T03:49:21.658Z,99435.56
2023-01-30T03:51:48.174Z,99441.06
2023-01-30T03:54:14.954Z,99434.66
2023-01-30T03:56:41.338Z,99424.06
2023-01-30T03:59:08.020Z,99423.69
2023-01-30T04:01:34.688Z,99414.97
2023-01-30T04:04:01.205Z,99419.59
2023-01-30T04:06:27.734Z,99404.88
2023-01-30T04:08:54.163Z,99393.03
2023-01-30T04:11:21.592Z,99400.06
2023-01-30T04:13:48.054Z,99401.13
2023-01-30T04:16:21.087Z,99401.13
2023-01-30T04:18:47.853Z,99388.53
2023-01-30T04:21:15.203Z,99389.47
2023-01-30T04:23:42.141Z,99379.44
2023-01-30T04:26:09.729Z,99373.00
2023-01-30T04:28:37.386Z,99370.19
2023-01-30T04:31:04.252Z,99366.69
2023-01-30T04:33:32.443Z,99363.09
2023-01-30T04:36:00.190Z,99361.38
2023-01-30T04:38:28.247Z,99364.13
2023-01-30T04:40:56.235Z,99367.53
2023-01-30T04:43:24.109Z,99371.41
2023-01-30T04:45:51.494Z,99367.72
2023-01-30T04:48:19.230Z,99359.88
2023-01-30T04:50:48.969Z,99364.91
2023-01-30T04:53:16.724Z,99365.56
2023-01-30T04:55:43.274Z,99359.28
2023-01-30T04:58:10.315Z,99356.75
2023-01-30T05:00:36.875Z,99340.47
2023-01-30T05:03:03.441Z,99343.03
2023-01-30T05:05:30.125Z,99351.25
2023-01-30T05:07:56.565Z,99330.34
2023-01-30T05:10:23.155Z,99330.25
2023-01-30T05:12:49.953Z,99333.84
2023-01-30T05:15:17.172Z,99334.56
2023-01-30T05:17:44.703Z,99336.00
2023-01-30T05:20:13.488Z,99331.19
2023-01-30T05:22:39.873Z,99324.28
2023-01-30T05:25:07.300Z,99326.16
2023-01-30T05:27:33.919Z,99324.94
2023-01-30T05:30:00.302Z,99321.97
2023-01-30T05:32:27.287Z,99319.03
2023-01-30T05:34:53.721Z,99321.03
2023-01-30T05:37:20.217Z,99310.34
2023-01-30T05:39:46.681Z,99313.19
2023-01-30T05:42:14.763Z,99306.53
2023-01-30T05:44:41.199Z,99317.56
2023-01-30T05:47:07.761Z,99316.22
2023-01-30T05:49:34.278Z,99304.53
2023-01-30T05:52:00.772Z,99307.28
2023-01-30T05:54:27.186Z,99312.38
2023-01-30T05:56:53.667Z,99323.56
2023-01-30T05:59:20.296Z,99322.59
2023-01-30T06:01:46.739Z,99315.53
2023-01-30T06:04:13.396Z,99326.41
2023-01-30T06:06:39.967Z,99325.00
2023-01-30T06:09:06.528Z,99310.69
2023-01-30T06:11:32.900Z,99312.09
2023-01-30T06:13:59.407Z,99316.91
2023-01-30T06:16:25.826Z,99309.78
2023-01-30T06:18:52.372Z,99305.47
2023-01-30T06:21:18.787Z,99318.28
2023-01-30T06:23:46.254Z,99320.56
2023-01-30T06:26:12.634Z,99309.72
2023-01-30T06:28:39.366Z,99311.44
2023-01-30T06:31:07.821Z,99311.44
2023-01-30T06:33:34.648Z,99319.59
2023-01-30T06:36:01.068Z,99318.66
2023-01-30T06:38:27.645Z,99329.06
2023-01-30T06:40:54.155Z,99324.91
2023-01-30T06:43:20.807Z,99343.19
2023-01-30T06:45:47.305Z,99343.38
2023-01-30T06:48:13.892Z,99352.75
2023-01-30T06:50:40.298Z,99343.94
2023-01-30T06:53:07.845Z,99330.94
2023-01-30T06:55:35.694Z,99328.28
2023-01-30T06:58:11.278Z,99328.09
2023-01-30T07:00:39.961Z,99328.84
2023-01-30T07:03:11.398Z,99332.28
2023-01-30T07:05:39.793Z,99339.25
2023-01-30T07:08:06.259Z,99340.25
2023-01-30T07:10:33.206Z,99352.53
2023-01-30T07:12:59.868Z,99350.34
2023-01-30T07:15:26.539Z,99367.53
2023-01-30T07:17:53.004Z,99367.00
2023-01-30T07:20:19.872Z,99357.47
2023-01-30T07:22:54.150Z,99370.00
2023-01-30T07:25:22.336Z,99357.66
2023-01-30T07:27:53.631Z,99340.00
2023-01-30T07:30:20.614Z,99361.91
2023-01-30T07:32:55.576Z,99366.16
2023-01-30T07:35:23.752Z,99373.69
2023-01-30T07:37:51.301Z,99366.81
2023-01-30T07:40:20.219Z,99360.03
2023-01-30T07:42:56.803Z,99355.25
2023-01-30T07:45:23.801Z,99357.03
2023-01-30T07:47:50.234Z,99363.22
2023-01-30T07:50:17.595Z,99370.00
2023-01-30T07:52:44.810Z,99368.00
2023-01-30T07:55:12.406Z,99367.06
2023-01-30T07:57:39.853Z,99360.97
2023-01-30T08:00:07.782Z,99368.75
2023-01-30T08:02:34.873Z,99378.34
2023-01-30T08:05:01.572Z,99380.66
2023-01-30T08:07:29.613Z,99376.41
2023-01-30T08:09:56.553Z,99374.59
2023-01-30T08:12:23.380Z,99363.03
2023-01-30T08:14:50.442Z,99378.63
2023-01-30T08:17:17.656Z,99388.75
2023-01-30T08:19:44.205Z,99378.78
2023-01-30T08:22:10.792Z,99378.97
2023-01-30T08:24:37.522Z,99375.25
2023-01-30T08:27:04.000Z,99374.00
2023-01-30T08:29:30.579Z,99374.75
2023-01-30T08:32:00.821Z,99377.22
2023-01-30T08:34:27.583Z,99362.00
2023-01-30T08:36:53.960Z,99376.22
2023-01-30T08:39:22.676Z,99384.00
2023-01-30T08:41:49.080Z,99376.38
2023-01-30T08:44:15.595Z,99377.75
2023-01-30T08:46:42.034Z,99389.50
2023-01-30T08:49:08.618Z,99391.69
2023-01-30T08:51:35.059Z,99408.84
2023-01-30T08:54:01.566Z,99412.06
2023-01-30T08:56:27.932Z,99392.63
2023-01-30T08:58:54.341Z,99401.66
2023-01-30T09:01:20.845Z,99392.41
2023-01-30T09:03:47.875Z,99390.53
2023-01-30T09:06:14.470Z,99390.31
2023-01-30T09:08:41.052Z,99376.06
2023-01-30T09:11:07.632Z,99385.09
2023-01-30T09:13:35.221Z,99393.94
2023-01-30T09:16:01.974Z,99392.00
2023-01-30T09:18:28.492Z,99399.25
2023-01-30T09:21:02.829Z,99397.75
2023-01-30T09:23:29.329Z,99394.78
2023-01-30T09:25:55.790Z,99407.56
2023-01-30T09:28:22.453Z,99400.63
2023-01-30T09:30:49.079Z,99401.38
2023-01-30T09:33:17.806Z,99407.00
2023-01-30T09:35:47.957Z,99404.84
2023-01-30T09:38:14.528Z,99384.25
2023-01-30T09:41:07.129Z,99368.03
2023-01-30T09:43:42.754Z,99373.75
2023-01-30T09:46:36.284Z,99388.47
2023-01-30T09:49:28.709Z,99396.44
2023-01-30T09:52:19.244Z,99379.41
2023-01-30T09:54:48.194Z,99373.56
2023-01-30T09:57:20.401Z,99377.31
2023-01-30T10:00:04.781Z,99378.97
2023-01-30T10:02:53.008Z,99372.78
2023-01-30T10:05:19.863Z,99365.19
2023-01-30T10:07:58.108Z,99365.81
2023-01-30T10:10:35.216Z,99360.91
2023-01-30T10:13:24.926Z,99370.91
2023-01-30T10:15:53.761Z,99363.69
2023-01-30T10:18:44.949Z,99364.47
2023-01-30T10:21:38.424Z,99337.16
2023-01-30T10:24:18.518Z,99368.19
2023-01-30T10:26:45.820Z,99374.75
2023-01-30T10:29:47.309Z,99366.81
2023-01-30T10:32:31.808Z,99356.25
2023-01-30T10:35:04.583Z,99350.44
2023-01-30T10:37:36.683Z,99366.63
2023-01-30T10:40:24.185Z,99365.31
2023-01-30T10:43:18.360Z,99371.53
2023-01-30T10:46:04.325Z,99366.19
2023-01-30T10:48:48.369Z,99373.91
2023-01-30T10:51:48.812Z,99371.97
2023-01-30T10:54:32.797Z,99359.25
2023-01-30T10:57:23.764Z,99380.03
2023-01-30T11:00:13.114Z,99372.47
2023-01-30T11:03:04.671Z,99374.28
2023-01-30T11:05:42.077Z,99377.34
2023-01-30T11:08:24.723Z,99377.13
2023-01-30T11:10:52.837Z,99392.28
2023-01-30T11:13:22.642Z,99378.75
2023-01-30T11:15:52.578Z,99397.88
2023-01-30T11:21:14.354Z,99395.00
2023-01-30T11:23:43.481Z,99367.25
2023-01-30T11:26:46.689Z,99400.06
2023-01-30T11:29:26.246Z,99404.94
2023-01-30T11:31:53.733Z,99384.94
2023-01-30T11:34:22.764Z,99379.41
2023-01-30T11:36:50.205Z,99378.53
2023-01-30T11:39:18.547Z,99373.81
2023-01-30T11:41:54.183Z,99380.97
2023-01-30T11:44:34.589Z,99380.47
2023-01-30T11:47:10.210Z,99372.47
2023-01-30T11:49:47.601Z,99383.34
2023-01-30T11:52:37.745Z,99376.34
2023-01-30T11:55:10.754Z,99379.94
2023-01-30T11:57:43.345Z,99370.91
2023-01-30T12:00:40.854Z,99396.66
2023-01-30T12:03:12.130Z,99390.00
2023-01-30T12:05:42.551Z,99375.84
2023-01-30T12:08:39.370Z,99382.09
2023-01-30T12:11:26.725Z,99371.34
2023-01-30T12:13:57.258Z,99374.84
2023-01-30T12:16:32.459Z,99373.16
2023-01-30T12:19:52.905Z,99384.56
2023-01-30T12:22:35.562Z,99384.34
2023-01-30T12:25:14.300Z,99374.28
2023-01-30T12:28:09.631Z,99375.47
2023-01-30T12:30:42.952Z,99394.50
2023-01-30T12:33:15.405Z,99391.34
2023-01-30T12:35:56.065Z,99384.78
2023-01-30T12:39:04.805Z,99382.63
2023-01-30T12:41:56.296Z,99379.00
2023-01-30T12:44:51.665Z,99382.00
2023-01-30T12:47:31.717Z,99384.78
2023-01-30T12:50:07.446Z,99392.06
2023-01-30T12:52:49.271Z,99391.34
2023-01-30T12:55:34.341Z,99403.94
2023-01-30T12:58:06.313Z,99384.78
2023-01-30T13:00:54.376Z,99385.78
2023-01-30T13:03:42.592Z,99402.00
2023-01-30T13:06:39.729Z,99417.34
2023-01-30T13:09:34.056Z,99412.13
2023-01-30T13:12:09.491Z,99414.28
2023-01-30T13:15:00.012Z,99412.94
2023-01-30T13:17:32.429Z,99403.53
2023-01-30T13:20:09.593Z,99418.44
2023-01-30T13:23:13.243Z,99410.50
2023-01-30T13:25:55.861Z,99415.81
2023-01-30T13:28:26.283Z,99422.22
2023-01-30T13:30:55.591Z,99420.72
2023-01-30T13:33:50.890Z,99425.88
2023-01-30T13:36:24.467Z,99425.13
2023-01-30T13:39:00.034Z,99440.16
2023-01-30T13:41:31.440Z,99446.13
2023-01-30T13:43:58.952Z,99452.06
2023-01-30T13:46:29.105Z,99459.19
2023-01-30T13:49:07.903Z,99446.94
2023-01-30T13:52:02.394Z,99454.41
2023-01-30T13:55:01.452Z,99435.00
2023-01-30T13:57:47.798Z,99432.69
2023-01-30T14:00:23.829Z,99451.09
2023-01-30T14:03:05.633Z,99467.50
2023-01-30T14:05:51.115Z,99462.63
2023-01-30T14:08:19.805Z,99459.13
2023-01-30T14:10:47.807Z,99454.97
2023-01-30T14:13:17.526Z,99472.69
2023-01-30T14:15:59.309Z,99459.53
2023-01-30T14:18:35.491Z,99475.75
2023-01-30T14:21:26.356Z,99479.03
2023-01-30T14:24:04.996Z,99472.97
2023-01-30T14:26:53.074Z,99483.41
2023-01-30T14:29:38.075Z,99501.97
2023-01-30T14:32:24.867Z,99495.97
2023-01-30T14:35:00.753Z,99499.31
2023-01-30T14:37:37.727Z,99504.94
2023-01-30T14:40:24.350Z,99500.03
2023-01-30T14:43:12.436Z,99506.25
2023-01-30T14:45:58.150Z,99514.34
2023-01-30T14:49:01.633Z,99516.34
2023-01-30T14:51:40.538Z,99504.31
2023-01-30T14:54:25.501Z,99520.09
2023-01-30T14:57:01.227Z,99512.44
2023-01-30T14:59:30.543Z,99527.78
2023-01-30T15:02:06.370Z,99535.47
2023-01-30T15:04:40.219Z,99533.34
2023-01-30T15:07:17.374Z,99536.41
2023-01-30T15:09:52.372Z,99530.84
2023-01-30T15:12:33.283Z,99534.69
2023-01-30T15:15:26.811Z,99529.66
2023-01-30T15:18:06.051Z,99534.47
2023-01-30T15:20:53.416Z,99540.75
2023-01-30T15:23:48.683Z,99539.69
2023-01-30T15:26:25.306Z,99559.84
2023-01-30T15:29:33.200Z,99571.56
2023-01-30T15:32:02.460Z,99559.97
2023-01-30T15:34:31.766Z,99563.16
2023-01-30T15:36:58.444Z,99578.84
2023-01-30T15:39:26.911Z,99576.16
2023-01-30T15:41:59.029Z,99576.81
2023-01-30T15:44:52.249Z,99577.44
2023-01-30T15:47:40.980Z,99586.38
2023-01-30T15:50:10.221Z,99591.94
2023-01-30T15:52:45.078Z,99583.28
2023-01-30T15:55:26.003Z,99589.59
2023-01-30T15:57:57.649Z,99591.28
2023-01-30T16:00:34.694Z,99595.22
2023-01-30T16:03:03.345Z,99597.47
2023-01-30T16:05:30.576Z,99599.25
2023-01-30T16:07:59.233Z,99595.75
2023-01-30T16:10:28.968Z,99623.97
2023-01-30T16:12:57.631Z,99626.34
2023-01-30T16:15:36.085Z,99637.63
2023-01-30T16:18:24.616Z,99658.38
2023-01-30T16:21:02.598Z,99663.72
2023-01-30T16:23:35.321Z,99669.97
2023-01-30T16:26:03.616Z,99664.44
2023-01-30T16:28:34.124Z,99673.59
2023-01-30T16:31:09.519Z,99673.78
2023-01-30T16:33:36.562Z,99677.63
2023-01-30T16:36:16.657Z,99673.47
2023-01-30T16:38:45.385Z,99686.88
2023-01-30T16:41:30.802Z,99688.56
2023-01-30T16:44:19.070Z,99703.19
2023-01-30T16:46:47.144Z,99709.09
2023-01-30T16:49:30.463Z,99721.28
2023-01-30T16:52:34.568Z,99717.34
2023-01-30T16:55:04.960Z,99722.97
2023-01-30T16:57:37.241Z,99730.00
2023-01-30T17:00:07.834Z,99738.38
2023-01-30T17:02:37.138Z,99734.97
2023-01-30T17:05:19.237Z,99734.03
2023-01-30T17:07:46.901Z,99745.53
2023-01-30T17:10:37.663Z,99738.59
2023-01-30T17:13:04.600Z,99743.06
2023-01-30T17:15:34.745Z,99740.31
2023-01-30T17:18:01.967Z,99752.22
2023-01-30T17:20:37.680Z,99750.28
2023-01-30T17:23:07.964Z,99757.03
2023-01-30T17:25:39.259Z,99766.91
2023-01-30T17:28:07.552Z,99765.41
2023-01-30T17:30:35.065Z,99776.81
2023-01-30T17:33:01.854Z,99772.25
2023-01-30T17:35:28.317Z,99769.69
2023-01-30T17:38:04.733Z,99771.41
2023-01-30T17:40:38.936Z,99772.34
2023-01-30T17:43:05.658Z,99771.69
2023-01-30T17:45:32.183Z,99779.00
2023-01-30T17:47:58.630Z,99784.91
2023-01-30T17:50:25.296Z,99785.75
2023-01-30T17:52:51.681Z,99797.56
2023-01-30T17:55:18.620Z,99799.66
2023-01-30T17:57:48.032Z,99797.56
2023-01-30T18:00:18.331Z,99811.41
2023-01-30T18:02:45.372Z,99806.28
2023-01-30T18:05:12.146Z,99810.09
2023-01-30T18:07:40.709Z,99814.88
2023-01-30T18:10:11.755Z,99818.56
2023-01-30T18:12:38.315Z,99826.06
2023-01-30T18:15:05.169Z,99829.00
2023-01-30T18:17:32.496Z,99820.28
2023-01-30T18:20:01.064Z,99821.78
2023-01-30T18:22:27.675Z,99841.16
2023-01-30T18:24:54.105Z,99838.41
2023-01-30T18:27:20.653Z,99836.72
2023-01-30T18:29:47.063Z,99833.50
2023-01-30T18:32:13.737Z,99834.25
2023-01-30T18:34:40.181Z,99834.81
2023-01-30T18:37:06.738Z,99839.19
2023-01-30T18:39:33.242Z,99843.47
2023-01-30T18:42:01.779Z,99843.34
2023-01-30T18:44:28.158Z,99839.66
2023-01-30T18:46:54.673Z,99847.56
2023-01-30T18:49:21.096Z,99846.47
2023-01-30T18:51:47.809Z,99847.56
2023-01-30T18:54:14.244Z,99846.78
2023-01-30T18:56:40.799Z,99839.94
2023-01-30T18:59:07.663Z,99851.34
2023-01-30T19:01:39.058Z,99854.31
2023-01-30T19:04:08.335Z,99852.31
2023-01-30T19:06:39.505Z,99867.72
2023-01-30T19:09:06.699Z,99871.41
2023-01-30T19:11:52.321Z,99869.41
2023-01-30T19:14:18.816Z,99866.38
2023-01-30T19:16:45.423Z,99870.75
2023-01-30T19:19:12.223Z,99866.97
2023-01-30T19:21:39.242Z,99869.31
2023-01-30T19:24:07.547Z,99868.25
2023-01-30T19:26:34.953Z,99871.88
2023-01-30T19:29:01.592Z,99875.69
2023-01-30T19:31:28.423Z,99879.31
2023-01-30T19:34:00.926Z,99886.34
2023-01-30T19:36:31.723Z,99882.06
2023-01-30T19:38:59.805Z,99886.53
2023-01-30T19:41:28.528Z,99891.09
2023-01-30T19:43:56.542Z,99885.78
2023-01-30T19:46:23.151Z,99895.63
2023-01-30T19:48:49.681Z,99887.06
2023-01-30T19:51:22.320Z,99898.09
2023-01-30T19:53:56.827Z,99893.19
2023-01-30T19:56:25.338Z,99906.66
2023-01-30T19:58:54.747Z,99910.34
2023-01-30T20:01:23.224Z,99915.56
2023-01-30T20:03:49.964Z,99918.31
2023-01-30T20:06:19.441Z,99936.19
2023-01-30T20:08:49.037Z,99935.16
2023-01-30T20:11:17.688Z,99937.03
2023-01-30T20:13:45.567Z,99946.81
2023-01-30T20:16:19.762Z,99952.31
2023-01-30T20:18:55.313Z,99955.28
2023-01-30T20:21:21.942Z,99955.94
2023-01-30T20:23:49.161Z,99961.53
2023-01-30T20:26:19.036Z,99954.56
2023-01-30T20:28:45.800Z,99973.50
2023-01-30T20:31:15.657Z,99975.41
2023-01-30T20:33:42.560Z,99961.94
2023-01-30T20:36:11.832Z,99976.72
2023-01-30T20:38:41.617Z,99978.41
2023-01-30T20:41:12.582Z,99977.22
2023-01-30T20:43:40.587Z,99979.97
2023-01-30T20:46:10.740Z,99975.66
2023-01-30T20:48:38.597Z,99989.72
2023-01-30T20:51:11.110Z,99995.16
2023-01-30T20:53:39.688Z,99995.50
2023-01-30T20:56:06.977Z,100007.94
2023-01-30T20:58:33.680Z,99990.34
2023-01-30T21:01:26.712Z,99990.34
2023-01-30T21:03:54.601Z,99995.84
2023-01-30T21:06:42.725Z,100001.16
2023-01-30T21:09:20.901Z,100011.78
2023-01-30T21:11:48.925Z,100012.94
2023-01-30T21:14:16.542Z,100018.41
2023-01-30T21:16:43.476Z,100023.91
2023-01-30T21:19:14.391Z,100028.84
2023-01-30T21:21:50.397Z,100031.63
2023-01-30T21:24:19.365Z,100039.00
2023-01-30T21:26:47.146Z,100043.69
2023-01-30T21:29:15.790Z,100035.72
2023-01-30T21:31:43.649Z,100031.97
2023-01-30T21:34:10.830Z,100043.03
2023-01-30T21:36:37.869Z,100050.66
2023-01-30T21:39:24.279Z,100045.34
2023-01-30T21:41:50.857Z,100053.41
2023-01-30T21:44:19.072Z,100056.06
2023-01-30T21:46:48.934Z,100055.28
2023-01-30T21:49:16.891Z,100060.25
2023-01-30T21:51:45.698Z,100070.72
2023-01-30T21:54:13.726Z,100069.28
2023-01-30T21:56:40.561Z,100077.91
2023-01-30T21:59:08.068Z,100081.88
2023-01-30T22:01:36.708Z,100085.03
2023-01-30T22:04:05.590Z,100092.09
2023-01-30T22:06:32.815Z,100105.53
2023-01-30T22:09:00.605Z,100094.75
2023-01-30T22:11:28.856Z,100104.09
2023-01-30T22:13:56.255Z,100102.81
2023-01-30T22:16:25.748Z,100116.50
2023-01-30T22:18:58.164Z,100109.81
2023-01-30T22:21:27.351Z,100105.50
2023-01-30T22:23:54.967Z,100110.03
2023-01-30T22:26:23.822Z,100114.22
2023-01-30T22:28:58.623Z,100117.66
2023-01-30T22:31:26.929Z,100131.44
2023-01-30T22:33:55.636Z,100139.84
2023-01-30T22:36:28.081Z,100129.06
2023-01-30T22:38:54.665Z,100140.63
2023-01-30T22:41:23.552Z,100143.50
2023-01-30T22:43:55.669Z,100140.97
2023-01-30T22:46:27.300Z,100140.00
2023-01-30T22:48:54.641Z,100133.50
2023-01-30T22:51:27.126Z,100136.94
2023-01-30T22:53:56.043Z,100136.41
2023-01-30T22:56:25.130Z,100127.47
2023-01-30T22:58:52.147Z,100138.56
2023-01-30T23:01:21.836Z,100145.59
2023-01-30T23:03:54.871Z,100138.34
2023-01-30T23:06:22.420Z,100141.84
2023-01-30T23:08:49.684Z,100137.47
2023-01-30T23:11:29.584Z,100145.75
2023-01-30T23:14:08.853Z,100142.59
2023-01-30T23:16:36.924Z,100145.75
2023-01-30T23:19:05.075Z,100135.47
2023-01-30T23:21:45.817Z,100145.75
2023-01-30T23:24:30.230Z,100144.91
2023-01-30T23:26:56.721Z,100143.25
2023-01-30T23:29:23.153Z,100136.25
2023-01-30T23:31:49.596Z,100130.50
2023-01-30T23:34:18.169Z,100129.13
2023-01-30T23:36:45.682Z,100133.75
2023-01-30T23:39:13.985Z,100144.31
2023-01-30T23:41:41.350Z,100150.03
2023-01-30T23:44:08.566Z,100146.97
2023-01-30T23:46:37.756Z,100150.53
2023-01-30T23:49:07.083Z,100141.03
2023-01-30T23:51:36.382Z,100136.91
2023-01-30T23:54:04.248Z,100139.50
2023-01-30T23:56:32.205Z,100134.91
2023-01-30T23:58:58.831Z,100131.47
